sensor_id;sensor_type;location;lat;lon;timestamp;temperature;humidity
19164;DHT22;9714;51.208;4.242;2023-05-20T00:01:05;15.30;99.90
19164;DHT22;9714;51.208;4.242;2023-05-20T00:03:32;15.20;99.90
19164;DHT22;9714;51.208;4.242;2023-05-20T00:06:06;15.30;99.90
19164;DHT22;9714;51.208;4.242;2023-05-20T00:08:39;15.20;99.90
19164;DHT22;9714;51.208;4.242;2023-05-20T00:11:13;15.10;99.90
19164;DHT22;9714;51.208;4.242;2023-05-20T00:13:42;15.10;99.90
19164;DHT22;9714;51.208;4.242;2023-05-20T00:16:10;14.90;99.90
19164;DHT22;9714;51.208;4.242;2023-05-20T00:18:39;14.90;99.90
19164;DHT22;9714;51.208;4.242;2023-05-20T00:21:10;14.90;99.90
19164;DHT22;9714;51.208;4.242;2023-05-20T00:23:47;14.90;99.90
19164;DHT22;9714;51.208;4.242;2023-05-20T00:26:16;14.90;99.90
19164;DHT22;9714;51.208;4.242;2023-05-20T00:28:48;14.90;99.90
19164;DHT22;9714;51.208;4.242;2023-05-20T00:31:21;14.90;99.90
19164;DHT22;9714;51.208;4.242;2023-05-20T00:33:50;14.90;99.90
19164;DHT22;9714;51.208;4.242;2023-05-20T00:36:32;14.80;99.90
19164;DHT22;9714;51.208;4.242;2023-05-20T00:39:11;14.90;99.90
19164;DHT22;9714;51.208;4.242;2023-05-20T00:41:41;14.80;99.90
19164;DHT22;9714;51.208;4.242;2023-05-20T00:44:11;14.70;99.90
19164;DHT22;9714;51.208;4.242;2023-05-20T00:49:33;14.80;99.90
19164;DHT22;9714;51.208;4.242;2023-05-20T00:52:06;14.80;99.90
19164;DHT22;9714;51.208;4.242;2023-05-20T00:54:45;14.70;99.90
19164;DHT22;9714;51.208;4.242;2023-05-20T00:57:27;14.70;99.90
19164;DHT22;9714;51.208;4.242;2023-05-20T00:59:57;14.80;99.90
19164;DHT22;9714;51.208;4.242;2023-05-20T01:02:26;14.70;99.90
19164;DHT22;9714;51.208;4.242;2023-05-20T01:04:57;14.70;99.90
19164;DHT22;9714;51.208;4.242;2023-05-20T01:07:26;14.50;99.90
19164;DHT22;9714;51.208;4.242;2023-05-20T01:10:04;14.60;99.90
19164;DHT22;9714;51.208;4.242;2023-05-20T01:12:36;14.60;99.90
19164;DHT22;9714;51.208;4.242;2023-05-20T01:15:08;14.50;99.90
19164;DHT22;9714;51.208;4.242;2023-05-20T01:17:38;14.60;99.90
19164;DHT22;9714;51.208;4.242;2023-05-20T01:20:07;14.60;99.90
19164;DHT22;9714;51.208;4.242;2023-05-20T01:22:46;14.60;99.90
19164;DHT22;9714;51.208;4.242;2023-05-20T01:25:17;14.50;99.90
19164;DHT22;9714;51.208;4.242;2023-05-20T01:27:51;14.40;99.90
19164;DHT22;9714;51.208;4.242;2023-05-20T01:30:21;14.50;99.90
19164;DHT22;9714;51.208;4.242;2023-05-20T01:32:58;14.40;99.90
19164;DHT22;9714;51.208;4.242;2023-05-20T01:35:31;14.40;99.90
19164;DHT22;9714;51.208;4.242;2023-05-20T01:38:04;14.40;99.90
19164;DHT22;9714;51.208;4.242;2023-05-20T01:43:08;14.30;99.90
19164;DHT22;9714;51.208;4.242;2023-05-20T01:45:42;14.30;99.90
19164;DHT22;9714;51.208;4.242;2023-05-20T01:48:13;14.20;99.90
19164;DHT22;9714;51.208;4.242;2023-05-20T01:50:48;14.30;99.90
19164;DHT22;9714;51.208;4.242;2023-05-20T01:53:18;14.20;99.90
19164;DHT22;9714;51.208;4.242;2023-05-20T01:55:49;14.20;99.90
19164;DHT22;9714;51.208;4.242;2023-05-20T01:58:18;14.20;99.90
19164;DHT22;9714;51.208;4.242;2023-05-20T02:00:48;14.10;99.90
19164;DHT22;9714;51.208;4.242;2023-05-20T02:03:20;14.00;99.90
19164;DHT22;9714;51.208;4.242;2023-05-20T02:05:54;14.00;99.90
19164;DHT22;9714;51.208;4.242;2023-05-20T02:08:25;14.10;99.90
19164;DHT22;9714;51.208;4.242;2023-05-20T02:10:54;14.00;99.90
19164;DHT22;9714;51.208;4.242;2023-05-20T02:13:22;14.20;99.90
19164;DHT22;9714;51.208;4.242;2023-05-20T02:15:50;14.10;99.90
19164;DHT22;9714;51.208;4.242;2023-05-20T02:18:20;13.90;99.90
19164;DHT22;9714;51.208;4.242;2023-05-20T02:20:51;13.90;99.90
19164;DHT22;9714;51.208;4.242;2023-05-20T02:23:21;13.90;99.90
19164;DHT22;9714;51.208;4.242;2023-05-20T02:25:56;13.90;99.90
19164;DHT22;9714;51.208;4.242;2023-05-20T02:28:24;13.80;99.90
19164;DHT22;9714;51.208;4.242;2023-05-20T02:30:54;13.90;99.90
19164;DHT22;9714;51.208;4.242;2023-05-20T02:33:25;13.80;99.90
19164;DHT22;9714;51.208;4.242;2023-05-20T02:35:56;13.90;99.90
19164;DHT22;9714;51.208;4.242;2023-05-20T02:38:32;13.90;99.90
19164;DHT22;9714;51.208;4.242;2023-05-20T02:41:03;13.80;99.90
19164;DHT22;9714;51.208;4.242;2023-05-20T02:43:34;13.80;99.90
19164;DHT22;9714;51.208;4.242;2023-05-20T02:46:10;13.80;99.90
19164;DHT22;9714;51.208;4.242;2023-05-20T02:48:43;13.80;99.90
19164;DHT22;9714;51.208;4.242;2023-05-20T02:51:16;13.80;99.90
19164;DHT22;9714;51.208;4.242;2023-05-20T02:53:49;13.70;99.90
19164;DHT22;9714;51.208;4.242;2023-05-20T02:56:19;13.70;99.90
19164;DHT22;9714;51.208;4.242;2023-05-20T02:58:49;13.50;99.90
19164;DHT22;9714;51.208;4.242;2023-05-20T03:01:23;13.50;99.90
19164;DHT22;9714;51.208;4.242;2023-05-20T03:04:03;13.50;99.90
19164;DHT22;9714;51.208;4.242;2023-05-20T03:06:31;13.60;99.90
19164;DHT22;9714;51.208;4.242;2023-05-20T03:09:05;13.60;99.90
19164;DHT22;9714;51.208;4.242;2023-05-20T03:11:36;13.60;99.90
19164;DHT22;9714;51.208;4.242;2023-05-20T03:14:04;13.40;99.90
19164;DHT22;9714;51.208;4.242;2023-05-20T03:16:32;13.30;99.90
19164;DHT22;9714;51.208;4.242;2023-05-20T03:19:02;13.40;99.90
19164;DHT22;9714;51.208;4.242;2023-05-20T03:21:32;13.40;99.90
19164;DHT22;9714;51.208;4.242;2023-05-20T03:23:59;13.50;99.90
19164;DHT22;9714;51.208;4.242;2023-05-20T03:26:28;13.50;99.90
19164;DHT22;9714;51.208;4.242;2023-05-20T03:29:04;13.40;99.90
19164;DHT22;9714;51.208;4.242;2023-05-20T03:31:33;13.40;99.90
19164;DHT22;9714;51.208;4.242;2023-05-20T03:34:02;13.40;99.90
19164;DHT22;9714;51.208;4.242;2023-05-20T03:36:30;13.30;99.90
19164;DHT22;9714;51.208;4.242;2023-05-20T03:38:57;13.30;99.90
19164;DHT22;9714;51.208;4.242;2023-05-20T03:41:29;13.30;99.90
19164;DHT22;9714;51.208;4.242;2023-05-20T03:44:01;13.50;99.90
19164;DHT22;9714;51.208;4.242;2023-05-20T03:46:31;13.30;99.90
19164;DHT22;9714;51.208;4.242;2023-05-20T03:48:59;13.30;99.90
19164;DHT22;9714;51.208;4.242;2023-05-20T03:51:28;13.40;99.90
19164;DHT22;9714;51.208;4.242;2023-05-20T03:53:58;13.30;99.90
19164;DHT22;9714;51.208;4.242;2023-05-20T03:56:26;13.30;99.90
19164;DHT22;9714;51.208;4.242;2023-05-20T03:58:59;13.30;99.90
19164;DHT22;9714;51.208;4.242;2023-05-20T04:01:33;13.40;99.90
19164;DHT22;9714;51.208;4.242;2023-05-20T04:04:03;13.20;99.90
19164;DHT22;9714;51.208;4.242;2023-05-20T04:06:36;13.10;99.90
19164;DHT22;9714;51.208;4.242;2023-05-20T04:09:05;13.00;99.90
19164;DHT22;9714;51.208;4.242;2023-05-20T04:11:35;13.20;99.90
19164;DHT22;9714;51.208;4.242;2023-05-20T04:14:04;13.30;99.90
19164;DHT22;9714;51.208;4.242;2023-05-20T04:16:36;13.30;99.90
19164;DHT22;9714;51.208;4.242;2023-05-20T04:19:04;13.30;99.90
19164;DHT22;9714;51.208;4.242;2023-05-20T04:21:38;13.10;99.90
19164;DHT22;9714;51.208;4.242;2023-05-20T04:24:08;13.10;99.90
19164;DHT22;9714;51.208;4.242;2023-05-20T04:26:40;13.20;99.90
19164;DHT22;9714;51.208;4.242;2023-05-20T04:29:08;13.10;99.90
19164;DHT22;9714;51.208;4.242;2023-05-20T04:31:42;13.20;99.90
19164;DHT22;9714;51.208;4.242;2023-05-20T04:34:10;13.10;99.90
19164;DHT22;9714;51.208;4.242;2023-05-20T04:36:44;13.20;99.90
19164;DHT22;9714;51.208;4.242;2023-05-20T04:39:14;13.20;99.90
19164;DHT22;9714;51.208;4.242;2023-05-20T04:41:48;13.20;99.90
19164;DHT22;9714;51.208;4.242;2023-05-20T04:44:15;13.10;99.90
19164;DHT22;9714;51.208;4.242;2023-05-20T04:46:46;13.20;99.90
19164;DHT22;9714;51.208;4.242;2023-05-20T04:49:20;13.20;99.90
19164;DHT22;9714;51.208;4.242;2023-05-20T04:51:50;13.20;99.90
19164;DHT22;9714;51.208;4.242;2023-05-20T04:54:20;13.20;99.90
19164;DHT22;9714;51.208;4.242;2023-05-20T04:56:53;13.20;99.90
19164;DHT22;9714;51.208;4.242;2023-05-20T04:59:21;13.30;99.90
19164;DHT22;9714;51.208;4.242;2023-05-20T05:01:50;13.30;99.90
19164;DHT22;9714;51.208;4.242;2023-05-20T05:04:17;13.40;99.90
19164;DHT22;9714;51.208;4.242;2023-05-20T05:06:47;13.40;99.90
19164;DHT22;9714;51.208;4.242;2023-05-20T05:09:15;13.40;99.90
19164;DHT22;9714;51.208;4.242;2023-05-20T05:11:44;13.40;99.90
19164;DHT22;9714;51.208;4.242;2023-05-20T05:14:12;13.50;99.90
19164;DHT22;9714;51.208;4.242;2023-05-20T05:16:39;13.60;99.90
19164;DHT22;9714;51.208;4.242;2023-05-20T05:19:08;13.60;99.90
19164;DHT22;9714;51.208;4.242;2023-05-20T05:21:37;13.50;99.90
19164;DHT22;9714;51.208;4.242;2023-05-20T05:24:05;13.60;99.90
19164;DHT22;9714;51.208;4.242;2023-05-20T05:26:32;13.70;99.90
19164;DHT22;9714;51.208;4.242;2023-05-20T05:29:00;13.80;99.90
19164;DHT22;9714;51.208;4.242;2023-05-20T05:31:27;13.80;99.90
19164;DHT22;9714;51.208;4.242;2023-05-20T05:33:56;13.90;99.90
19164;DHT22;9714;51.208;4.242;2023-05-20T05:36:25;14.00;99.90
19164;DHT22;9714;51.208;4.242;2023-05-20T05:38:55;14.10;99.90
19164;DHT22;9714;51.208;4.242;2023-05-20T05:41:22;14.00;99.90
19164;DHT22;9714;51.208;4.242;2023-05-20T05:43:51;14.20;99.90
19164;DHT22;9714;51.208;4.242;2023-05-20T05:46:25;14.30;99.90
19164;DHT22;9714;51.208;4.242;2023-05-20T05:48:58;14.50;99.90
19164;DHT22;9714;51.208;4.242;2023-05-20T05:51:29;14.40;99.90
19164;DHT22;9714;51.208;4.242;2023-05-20T05:53:57;14.30;99.90
19164;DHT22;9714;51.208;4.242;2023-05-20T05:56:42;14.40;99.90
19164;DHT22;9714;51.208;4.242;2023-05-20T05:59:15;14.30;99.90
19164;DHT22;9714;51.208;4.242;2023-05-20T06:01:59;14.50;99.90
19164;DHT22;9714;51.208;4.242;2023-05-20T06:04:33;14.60;99.90
19164;DHT22;9714;51.208;4.242;2023-05-20T06:07:03;14.70;99.90
19164;DHT22;9714;51.208;4.242;2023-05-20T06:09:43;14.80;99.90
19164;DHT22;9714;51.208;4.242;2023-05-20T06:12:28;14.90;99.90
19164;DHT22;9714;51.208;4.242;2023-05-20T06:14:56;15.00;99.90
19164;DHT22;9714;51.208;4.242;2023-05-20T06:17:24;15.00;99.90
19164;DHT22;9714;51.208;4.242;2023-05-20T06:19:52;15.00;99.90
19164;DHT22;9714;51.208;4.242;2023-05-20T06:22:22;15.10;99.90
19164;DHT22;9714;51.208;4.242;2023-05-20T06:24:50;15.10;99.90
19164;DHT22;9714;51.208;4.242;2023-05-20T06:27:21;15.20;99.90
19164;DHT22;9714;51.208;4.242;2023-05-20T06:29:49;15.30;99.90
19164;DHT22;9714;51.208;4.242;2023-05-20T06:32:23;15.40;99.90
19164;DHT22;9714;51.208;4.242;2023-05-20T06:34:53;15.50;99.90
19164;DHT22;9714;51.208;4.242;2023-05-20T06:37:28;15.60;99.90
19164;DHT22;9714;51.208;4.242;2023-05-20T06:40:00;15.60;99.90
19164;DHT22;9714;51.208;4.242;2023-05-20T06:42:34;15.60;99.90
19164;DHT22;9714;51.208;4.242;2023-05-20T06:45:02;15.70;99.90
19164;DHT22;9714;51.208;4.242;2023-05-20T06:47:32;15.70;99.90
19164;DHT22;9714;51.208;4.242;2023-05-20T06:50:01;15.90;99.90
19164;DHT22;9714;51.208;4.242;2023-05-20T06:52:33;15.90;99.90
19164;DHT22;9714;51.208;4.242;2023-05-20T06:55:12;16.20;99.90
19164;DHT22;9714;51.208;4.242;2023-05-20T06:57:39;16.40;99.90
19164;DHT22;9714;51.208;4.242;2023-05-20T07:00:08;16.30;99.90
19164;DHT22;9714;51.208;4.242;2023-05-20T07:02:37;16.50;99.90
19164;DHT22;9714;51.208;4.242;2023-05-20T07:05:05;16.60;99.90
19164;DHT22;9714;51.208;4.242;2023-05-20T07:07:34;16.60;99.90
19164;DHT22;9714;51.208;4.242;2023-05-20T07:10:04;16.60;99.90
19164;DHT22;9714;51.208;4.242;2023-05-20T07:12:32;16.80;99.90
19164;DHT22;9714;51.208;4.242;2023-05-20T07:15:08;17.00;99.90
19164;DHT22;9714;51.208;4.242;2023-05-20T07:17:36;17.20;99.90
19164;DHT22;9714;51.208;4.242;2023-05-20T07:20:04;17.10;99.90
19164;DHT22;9714;51.208;4.242;2023-05-20T07:22:33;17.30;99.90
19164;DHT22;9714;51.208;4.242;2023-05-20T07:25:09;17.60;99.90
19164;DHT22;9714;51.208;4.242;2023-05-20T07:27:38;17.70;99.90
19164;DHT22;9714;51.208;4.242;2023-05-20T07:30:07;18.00;99.90
19164;DHT22;9714;51.208;4.242;2023-05-20T07:32:38;17.80;99.90
19164;DHT22;9714;51.208;4.242;2023-05-20T07:35:07;17.80;99.90
19164;DHT22;9714;51.208;4.242;2023-05-20T07:37:36;17.70;99.90
19164;DHT22;9714;51.208;4.242;2023-05-20T07:40:12;18.10;99.90
19164;DHT22;9714;51.208;4.242;2023-05-20T07:43:04;18.00;99.90
19164;DHT22;9714;51.208;4.242;2023-05-20T07:45:44;18.10;99.90
19164;DHT22;9714;51.208;4.242;2023-05-20T07:48:37;18.30;99.90
19164;DHT22;9714;51.208;4.242;2023-05-20T07:51:17;18.40;99.90
19164;DHT22;9714;51.208;4.242;2023-05-20T07:53:57;18.60;99.90
19164;DHT22;9714;51.208;4.242;2023-05-20T07:56:26;18.70;99.90
19164;DHT22;9714;51.208;4.242;2023-05-20T07:58:57;18.70;99.90
19164;DHT22;9714;51.208;4.242;2023-05-20T08:01:32;18.90;99.90
19164;DHT22;9714;51.208;4.242;2023-05-20T08:04:12;19.10;99.90
19164;DHT22;9714;51.208;4.242;2023-05-20T08:06:51;19.10;99.90
19164;DHT22;9714;51.208;4.242;2023-05-20T08:09:24;19.10;99.90
19164;DHT22;9714;51.208;4.242;2023-05-20T08:11:53;19.30;99.90
19164;DHT22;9714;51.208;4.242;2023-05-20T08:14:27;19.30;99.90
19164;DHT22;9714;51.208;4.242;2023-05-20T08:16:59;19.70;99.90
19164;DHT22;9714;51.208;4.242;2023-05-20T08:19:32;20.20;99.90
19164;DHT22;9714;51.208;4.242;2023-05-20T08:22:02;20.80;99.90
19164;DHT22;9714;51.208;4.242;2023-05-20T08:24:43;21.60;99.90
19164;DHT22;9714;51.208;4.242;2023-05-20T08:27:12;22.20;99.90
19164;DHT22;9714;51.208;4.242;2023-05-20T08:29:49;22.90;99.90
19164;DHT22;9714;51.208;4.242;2023-05-20T08:32:24;23.40;97.50
19164;DHT22;9714;51.208;4.242;2023-05-20T08:34:53;23.90;95.10
19164;DHT22;9714;51.208;4.242;2023-05-20T08:37:22;24.10;93.50
19164;DHT22;9714;51.208;4.242;2023-05-20T08:39:51;24.00;91.90
19164;DHT22;9714;51.208;4.242;2023-05-20T08:42:21;23.90;91.60
19164;DHT22;9714;51.208;4.242;2023-05-20T08:44:58;24.10;90.20
19164;DHT22;9714;51.208;4.242;2023-05-20T08:47:33;24.50;87.20
19164;DHT22;9714;51.208;4.242;2023-05-20T08:50:14;25.10;86.60
19164;DHT22;9714;51.208;4.242;2023-05-20T08:53:01;25.30;83.10
19164;DHT22;9714;51.208;4.242;2023-05-20T09:33:04;25.30;70.50
19164;DHT22;9714;51.208;4.242;2023-05-20T09:35:35;25.40;71.90
19164;DHT22;9714;51.208;4.242;2023-05-20T09:38:05;25.70;69.40
19164;DHT22;9714;51.208;4.242;2023-05-20T09:40:34;25.50;69.20
19164;DHT22;9714;51.208;4.242;2023-05-20T09:43:06;25.90;68.20
19164;DHT22;9714;51.208;4.242;2023-05-20T09:45:42;25.60;68.20
19164;DHT22;9714;51.208;4.242;2023-05-20T09:48:12;25.70;69.20
19164;DHT22;9714;51.208;4.242;2023-05-20T09:50:46;26.60;68.40
19164;DHT22;9714;51.208;4.242;2023-05-20T09:53:19;27.40;66.30
19164;DHT22;9714;51.208;4.242;2023-05-20T09:55:51;27.20;64.40
19164;DHT22;9714;51.208;4.242;2023-05-20T09:58:20;26.30;65.50
19164;DHT22;9714;51.208;4.242;2023-05-20T10:00:49;26.00;67.50
19164;DHT22;9714;51.208;4.242;2023-05-20T10:03:31;26.50;65.00
19164;DHT22;9714;51.208;4.242;2023-05-20T10:06:34;27.10;64.50
19164;DHT22;9714;51.208;4.242;2023-05-20T10:09:28;27.60;64.10
19164;DHT22;9714;51.208;4.242;2023-05-20T10:12:27;27.20;63.10
19164;DHT22;9714;51.208;4.242;2023-05-20T10:15:05;27.10;63.00
19164;DHT22;9714;51.208;4.242;2023-05-20T10:24:07;26.60;62.50
19164;DHT22;9714;51.208;4.242;2023-05-20T10:30:03;28.10;60.40
19164;DHT22;9714;51.208;4.242;2023-05-20T10:32:55;27.90;59.40
19164;DHT22;9714;51.208;4.242;2023-05-20T10:35:48;28.20;59.50
19164;DHT22;9714;51.208;4.242;2023-05-20T10:38:36;28.90;57.80
19164;DHT22;9714;51.208;4.242;2023-05-20T10:41:21;29.30;57.90
19164;DHT22;9714;51.208;4.242;2023-05-20T10:44:01;28.90;57.30
19164;DHT22;9714;51.208;4.242;2023-05-20T10:46:36;29.10;56.20
19164;DHT22;9714;51.208;4.242;2023-05-20T10:49:17;28.40;56.00
19164;DHT22;9714;51.208;4.242;2023-05-20T10:51:53;28.30;57.50
19164;DHT22;9714;51.208;4.242;2023-05-20T10:54:27;28.70;57.00
19164;DHT22;9714;51.208;4.242;2023-05-20T10:57:07;29.10;55.70
19164;DHT22;9714;51.208;4.242;2023-05-20T10:59:38;28.50;56.00
19164;DHT22;9714;51.208;4.242;2023-05-20T11:02:07;28.60;57.10
19164;DHT22;9714;51.208;4.242;2023-05-20T11:04:46;29.00;55.40
19164;DHT22;9714;51.208;4.242;2023-05-20T11:07:30;28.80;54.40
19164;DHT22;9714;51.208;4.242;2023-05-20T11:09:59;29.10;54.40
19164;DHT22;9714;51.208;4.242;2023-05-20T11:12:31;29.00;53.60
19164;DHT22;9714;51.208;4.242;2023-05-20T11:15:00;28.60;53.90
19164;DHT22;9714;51.208;4.242;2023-05-20T11:17:29;27.90;54.60
19164;DHT22;9714;51.208;4.242;2023-05-20T11:20:00;27.20;56.30
19164;DHT22;9714;51.208;4.242;2023-05-20T11:22:29;28.00;56.50
19164;DHT22;9714;51.208;4.242;2023-05-20T11:25:05;28.60;55.80
19164;DHT22;9714;51.208;4.242;2023-05-20T11:27:39;29.00;54.60
19164;DHT22;9714;51.208;4.242;2023-05-20T11:30:11;29.60;52.60
19164;DHT22;9714;51.208;4.242;2023-05-20T11:32:59;30.00;53.00
19164;DHT22;9714;51.208;4.242;2023-05-20T11:35:30;30.20;52.80
19164;DHT22;9714;51.208;4.242;2023-05-20T11:38:02;30.70;53.20
19164;DHT22;9714;51.208;4.242;2023-05-20T11:40:43;30.30;53.20
19164;DHT22;9714;51.208;4.242;2023-05-20T11:43:14;30.60;54.20
19164;DHT22;9714;51.208;4.242;2023-05-20T11:45:45;31.60;52.20
19164;DHT22;9714;51.208;4.242;2023-05-20T11:48:15;30.80;52.00
19164;DHT22;9714;51.208;4.242;2023-05-20T11:50:47;30.30;52.60
19164;DHT22;9714;51.208;4.242;2023-05-20T11:53:17;30.70;52.10
19164;DHT22;9714;51.208;4.242;2023-05-20T11:55:46;30.60;52.20
19164;DHT22;9714;51.208;4.242;2023-05-20T11:58:22;31.20;52.00
19164;DHT22;9714;51.208;4.242;2023-05-20T12:01:00;31.70;51.10
19164;DHT22;9714;51.208;4.242;2023-05-20T12:03:36;32.30;50.10
19164;DHT22;9714;51.208;4.242;2023-05-20T12:06:19;31.70;50.60
19164;DHT22;9714;51.208;4.242;2023-05-20T12:09:00;30.90;50.80
19164;DHT22;9714;51.208;4.242;2023-05-20T12:11:36;31.10;51.40
19164;DHT22;9714;51.208;4.242;2023-05-20T12:14:07;31.30;51.20
19164;DHT22;9714;51.208;4.242;2023-05-20T12:16:36;31.10;50.80
19164;DHT22;9714;51.208;4.242;2023-05-20T12:19:05;31.40;50.20
19164;DHT22;9714;51.208;4.242;2023-05-20T12:21:33;30.60;51.50
19164;DHT22;9714;51.208;4.242;2023-05-20T12:24:01;30.30;52.20
19164;DHT22;9714;51.208;4.242;2023-05-20T12:26:38;29.90;52.50
19164;DHT22;9714;51.208;4.242;2023-05-20T12:29:13;29.40;52.90
19164;DHT22;9714;51.208;4.242;2023-05-20T12:31:41;30.10;52.20
19164;DHT22;9714;51.208;4.242;2023-05-20T12:34:26;29.00;52.20
19164;DHT22;9714;51.208;4.242;2023-05-20T12:36:56;29.50;52.60
19164;DHT22;9714;51.208;4.242;2023-05-20T12:39:23;28.10;53.80
19164;DHT22;9714;51.208;4.242;2023-05-20T12:41:51;27.20;54.50
19164;DHT22;9714;51.208;4.242;2023-05-20T12:44:23;26.20;55.80
19164;DHT22;9714;51.208;4.242;2023-05-20T12:46:54;27.00;55.30
19164;DHT22;9714;51.208;4.242;2023-05-20T12:49:22;28.30;54.60
19164;DHT22;9714;51.208;4.242;2023-05-20T12:51:56;29.50;54.10
19164;DHT22;9714;51.208;4.242;2023-05-20T12:54:27;29.00;53.60
19164;DHT22;9714;51.208;4.242;2023-05-20T12:56:58;28.70;54.30
19164;DHT22;9714;51.208;4.242;2023-05-20T12:59:28;29.30;53.30
19164;DHT22;9714;51.208;4.242;2023-05-20T13:01:57;28.90;54.00
19164;DHT22;9714;51.208;4.242;2023-05-20T13:04:25;29.70;53.70
19164;DHT22;9714;51.208;4.242;2023-05-20T13:06:54;30.50;53.00
19164;DHT22;9714;51.208;4.242;2023-05-20T13:09:22;30.10;52.00
19164;DHT22;9714;51.208;4.242;2023-05-20T13:11:55;29.00;53.80
19164;DHT22;9714;51.208;4.242;2023-05-20T13:14:22;28.50;54.40
19164;DHT22;9714;51.208;4.242;2023-05-20T13:16:52;28.00;54.70
19164;DHT22;9714;51.208;4.242;2023-05-20T13:19:23;27.10;55.50
19164;DHT22;9714;51.208;4.242;2023-05-20T13:21:51;25.80;57.20
19164;DHT22;9714;51.208;4.242;2023-05-20T13:24:26;25.50;57.70
19164;DHT22;9714;51.208;4.242;2023-05-20T13:26:56;26.00;57.40
19164;DHT22;9714;51.208;4.242;2023-05-20T13:29:33;27.10;56.20
19164;DHT22;9714;51.208;4.242;2023-05-20T13:32:04;28.00;56.70
19164;DHT22;9714;51.208;4.242;2023-05-20T13:34:42;29.30;54.40
19164;DHT22;9714;51.208;4.242;2023-05-20T13:37:19;28.40;54.30
19164;DHT22;9714;51.208;4.242;2023-05-20T13:40:00;28.10;55.50
19164;DHT22;9714;51.208;4.242;2023-05-20T13:42:29;28.00;56.00
19164;DHT22;9714;51.208;4.242;2023-05-20T13:45:06;28.50;54.90
19164;DHT22;9714;51.208;4.242;2023-05-20T13:47:46;28.50;54.10
19164;DHT22;9714;51.208;4.242;2023-05-20T13:50:27;27.80;55.50
19164;DHT22;9714;51.208;4.242;2023-05-20T13:53:00;27.10;56.00
19164;DHT22;9714;51.208;4.242;2023-05-20T13:55:34;26.90;56.60
19164;DHT22;9714;51.208;4.242;2023-05-20T13:58:05;27.60;56.40
19164;DHT22;9714;51.208;4.242;2023-05-20T14:00:36;28.80;54.90
19164;DHT22;9714;51.208;4.242;2023-05-20T14:03:20;29.30;54.60
19164;DHT22;9714;51.208;4.242;2023-05-20T14:05:53;29.80;53.40
19164;DHT22;9714;51.208;4.242;2023-05-20T14:08:22;30.00;53.30
19164;DHT22;9714;51.208;4.242;2023-05-20T14:10:51;29.40;54.40
19164;DHT22;9714;51.208;4.242;2023-05-20T14:13:21;28.00;55.00
19164;DHT22;9714;51.208;4.242;2023-05-20T14:15:49;26.80;56.40
19164;DHT22;9714;51.208;4.242;2023-05-20T14:18:22;26.20;57.10
19164;DHT22;9714;51.208;4.242;2023-05-20T14:20:54;26.20;57.90
19164;DHT22;9714;51.208;4.242;2023-05-20T14:23:22;27.00;57.60
19164;DHT22;9714;51.208;4.242;2023-05-20T14:25:50;27.30;57.40
19164;DHT22;9714;51.208;4.242;2023-05-20T14:28:31;27.60;57.40
19164;DHT22;9714;51.208;4.242;2023-05-20T14:31:00;28.10;57.00
19164;DHT22;9714;51.208;4.242;2023-05-20T14:33:36;28.70;56.40
19164;DHT22;9714;51.208;4.242;2023-05-20T14:36:05;28.30;54.50
19164;DHT22;9714;51.208;4.242;2023-05-20T14:38:39;27.80;56.30
19164;DHT22;9714;51.208;4.242;2023-05-20T14:41:07;26.80;57.70
19164;DHT22;9714;51.208;4.242;2023-05-20T14:43:45;26.50;58.50
19164;DHT22;9714;51.208;4.242;2023-05-20T14:46:14;25.90;58.90
19164;DHT22;9714;51.208;4.242;2023-05-20T14:53:55;25.50;60.20
19164;DHT22;9714;51.208;4.242;2023-05-20T14:56:45;25.50;60.20
19164;DHT22;9714;51.208;4.242;2023-05-20T14:59:18;25.40;60.20
19164;DHT22;9714;51.208;4.242;2023-05-20T15:01:48;25.20;60.70
19164;DHT22;9714;51.208;4.242;2023-05-20T15:04:19;25.50;59.90
19164;DHT22;9714;51.208;4.242;2023-05-20T15:06:54;25.40;60.20
19164;DHT22;9714;51.208;4.242;2023-05-20T15:12:25;25.50;60.70
19164;DHT22;9714;51.208;4.242;2023-05-20T15:14:59;25.40;60.70
19164;DHT22;9714;51.208;4.242;2023-05-20T15:17:47;25.30;61.30
19164;DHT22;9714;51.208;4.242;2023-05-20T15:20:20;25.10;61.40
19164;DHT22;9714;51.208;4.242;2023-05-20T15:22:56;25.10;61.60
19164;DHT22;9714;51.208;4.242;2023-05-20T15:25:25;24.80;61.60
19164;DHT22;9714;51.208;4.242;2023-05-20T15:28:05;24.70;62.90
19164;DHT22;9714;51.208;4.242;2023-05-20T15:30:34;24.80;61.30
19164;DHT22;9714;51.208;4.242;2023-05-20T15:33:05;24.70;62.30
19164;DHT22;9714;51.208;4.242;2023-05-20T15:35:37;24.40;64.30
19164;DHT22;9714;51.208;4.242;2023-05-20T15:38:15;24.80;63.30
19164;DHT22;9714;51.208;4.242;2023-05-20T15:40:43;25.10;62.80
19164;DHT22;9714;51.208;4.242;2023-05-20T15:43:15;25.20;62.60
19164;DHT22;9714;51.208;4.242;2023-05-20T15:45:45;25.30;62.50
19164;DHT22;9714;51.208;4.242;2023-05-20T15:48:22;25.10;62.60
19164;DHT22;9714;51.208;4.242;2023-05-20T15:50:50;24.90;62.30
19164;DHT22;9714;51.208;4.242;2023-05-20T15:53:18;24.70;62.50
19164;DHT22;9714;51.208;4.242;2023-05-20T15:55:48;24.80;62.80
19164;DHT22;9714;51.208;4.242;2023-05-20T15:58:21;24.70;63.00
19164;DHT22;9714;51.208;4.242;2023-05-20T16:00:53;24.70;63.00
19164;DHT22;9714;51.208;4.242;2023-05-20T16:03:47;23.90;63.80
19164;DHT22;9714;51.208;4.242;2023-05-20T16:06:24;24.20;64.40
19164;DHT22;9714;51.208;4.242;2023-05-20T16:08:54;24.30;64.00
19164;DHT22;9714;51.208;4.242;2023-05-20T16:11:23;24.30;64.30
19164;DHT22;9714;51.208;4.242;2023-05-20T16:13:57;24.10;64.10
19164;DHT22;9714;51.208;4.242;2023-05-20T16:16:25;24.00;63.80
19164;DHT22;9714;51.208;4.242;2023-05-20T16:18:57;24.00;64.90
19164;DHT22;9714;51.208;4.242;2023-05-20T16:21:28;23.90;65.10
19164;DHT22;9714;51.208;4.242;2023-05-20T16:23:57;24.00;65.10
19164;DHT22;9714;51.208;4.242;2023-05-20T16:26:27;24.50;65.20
19164;DHT22;9714;51.208;4.242;2023-05-20T16:29:14;25.50;63.30
19164;DHT22;9714;51.208;4.242;2023-05-20T16:31:50;25.80;62.60
19164;DHT22;9714;51.208;4.242;2023-05-20T16:34:27;25.20;63.60
19164;DHT22;9714;51.208;4.242;2023-05-20T16:36:55;24.60;64.80
19164;DHT22;9714;51.208;4.242;2023-05-20T16:39:25;24.20;65.40
19164;DHT22;9714;51.208;4.242;2023-05-20T16:42:02;24.10;65.10
19164;DHT22;9714;51.208;4.242;2023-05-20T16:44:33;23.60;66.50
19164;DHT22;9714;51.208;4.242;2023-05-20T16:47:03;23.80;66.70
19164;DHT22;9714;51.208;4.242;2023-05-20T16:49:31;23.70;66.40
19164;DHT22;9714;51.208;4.242;2023-05-20T16:52:01;23.70;67.00
19164;DHT22;9714;51.208;4.242;2023-05-20T16:54:31;23.90;66.70
19164;DHT22;9714;51.208;4.242;2023-05-20T16:57:01;24.20;66.20
19164;DHT22;9714;51.208;4.242;2023-05-20T16:59:35;23.70;66.90
19164;DHT22;9714;51.208;4.242;2023-05-20T17:02:07;23.50;67.60
19164;DHT22;9714;51.208;4.242;2023-05-20T17:04:49;23.50;67.80
19164;DHT22;9714;51.208;4.242;2023-05-20T17:07:17;23.40;67.80
19164;DHT22;9714;51.208;4.242;2023-05-20T17:09:46;23.30;67.80
19164;DHT22;9714;51.208;4.242;2023-05-20T17:12:28;23.10;68.40
19164;DHT22;9714;51.208;4.242;2023-05-20T17:15:04;23.20;68.50
19164;DHT22;9714;51.208;4.242;2023-05-20T17:17:39;23.20;67.90
19164;DHT22;9714;51.208;4.242;2023-05-20T17:20:10;22.80;68.40